createdAt,value
2022-08-17T00:00:18.265Z,100750.59
2022-08-17T00:03:00.032Z,100747.06
2022-08-17T00:05:36.664Z,100750.72
2022-08-17T00:08:03.813Z,100752.84
2022-08-17T00:10:32.262Z,100745.13
2022-08-17T00:12:59.756Z,100750.16
2022-08-17T00:15:26.572Z,100744.09
2022-08-17T00:17:53.267Z,100751.78
2022-08-17T00:20:20.489Z,100750.16
2022-08-17T00:23:12.133Z,100753.78
2022-08-17T00:25:40.786Z,100755.25
2022-08-17T00:28:07.711Z,100754.56
2022-08-17T00:30:52.880Z,100759.44
2022-08-17T00:33:25.954Z,100754.56
2022-08-17T00:35:53.235Z,100755.59
2022-08-17T00:38:20.307Z,100757.13
2022-08-17T00:40:59.294Z,100752.38
2022-08-17T00:43:45.310Z,100745.63
2022-08-17T00:46:33.881Z,100743.16
2022-08-17T00:49:00.580Z,100742.00
2022-08-17T00:51:50.507Z,100744.78
2022-08-17T00:54:24.765Z,100740.25
2022-08-17T00:56:59.492Z,100746.56
2022-08-17T00:59:30.929Z,100755.75
2022-08-17T01:01:58.241Z,100748.16
2022-08-17T01:04:25.847Z,100753.41
2022-08-17T01:06:53.250Z,100754.25
2022-08-17T01:09:19.953Z,100750.63
2022-08-17T01:11:52.066Z,100756.00
2022-08-17T01:14:21.431Z,100751.91
2022-08-17T01:16:50.548Z,100758.81
2022-08-17T01:19:20.287Z,100755.41
2022-08-17T01:22:01.455Z,100758.22
2022-08-17T01:24:28.268Z,100760.66
2022-08-17T01:26:56.670Z,100759.03
2022-08-17T01:29:24.800Z,100761.13
2022-08-17T01:31:55.872Z,100760.09
2022-08-17T01:34:22.774Z,100760.81
2022-08-17T01:36:54.828Z,100767.34
2022-08-17T01:39:27.096Z,100763.22
2022-08-17T01:41:58.973Z,100768.25
2022-08-17T01:44:27.281Z,100763.59
2022-08-17T01:46:54.549Z,100768.72
2022-08-17T01:49:21.377Z,100763.00
2022-08-17T01:51:48.491Z,100769.53
2022-08-17T01:54:18.083Z,100769.53
2022-08-17T01:56:47.862Z,100763.25
2022-08-17T01:59:16.162Z,100760.22
2022-08-17T02:01:43.678Z,100757.75
2022-08-17T02:04:10.889Z,100765.44
2022-08-17T02:06:44.818Z,100765.66
2022-08-17T02:09:16.439Z,100773.97
2022-08-17T02:11:43.855Z,100772.44
2022-08-17T02:14:12.256Z,100766.97
2022-08-17T02:16:40.946Z,100767.13
2022-08-17T02:19:09.970Z,100768.97
2022-08-17T02:21:38.086Z,100757.28
2022-08-17T02:24:06.974Z,100760.66
2022-08-17T02:26:33.629Z,100768.72
2022-08-17T02:29:00.291Z,100765.44
2022-08-17T02:31:26.938Z,100770.72
2022-08-17T02:34:03.487Z,100760.53
2022-08-17T02:36:32.323Z,100773.06
2022-08-17T02:39:00.753Z,100758.09
2022-08-17T02:41:27.783Z,100763.34
2022-08-17T02:43:54.392Z,100759.16
2022-08-17T02:46:21.112Z,100765.00
2022-08-17T02:48:47.780Z,100756.59
2022-08-17T02:51:14.626Z,100757.16
2022-08-17T02:53:41.348Z,100757.53
2022-08-17T02:56:08.086Z,100764.06
2022-08-17T02:58:36.099Z,100756.00
2022-08-17T03:01:06.309Z,100758.13
2022-08-17T03:03:33.410Z,100764.28
2022-08-17T03:06:00.041Z,100758.13
2022-08-17T03:08:27.285Z,100759.75
2022-08-17T03:10:54.138Z,100768.03
2022-08-17T03:13:20.832Z,100766.03
2022-08-17T03:15:47.971Z,100765.44
2022-08-17T03:18:24.486Z,100761.59
2022-08-17T03:20:52.494Z,100768.16
2022-08-17T03:23:19.117Z,100759.84
2022-08-17T03:25:53.062Z,100766.13
2022-08-17T03:28:20.570Z,100763.69
2022-08-17T03:30:47.284Z,100762.66
2022-08-17T03:33:14.177Z,100762.66
2022-08-17T03:35:41.132Z,100759.59
2022-08-17T03:38:10.143Z,100765.47
2022-08-17T03:40:56.705Z,100768.81
2022-08-17T03:43:24.059Z,100759.03
2022-08-17T03:46:10.779Z,100762.09
2022-08-17T03:49:12.612Z,100758.56
2022-08-17T03:51:57.863Z,100758.56
2022-08-17T03:54:43.207Z,100752.59
2022-08-17T03:57:11.243Z,100748.28
2022-08-17T03:59:39.105Z,100762.53
2022-08-17T04:02:19.406Z,100754.72
2022-08-17T04:04:46.626Z,100758.56
2022-08-17T04:07:13.228Z,100761.94
2022-08-17T04:09:39.836Z,100760.44
2022-08-17T04:12:06.761Z,100766.25
2022-08-17T04:14:53.347Z,100767.66
2022-08-17T04:17:26.924Z,100762.53
2022-08-17T04:19:54.704Z,100768.47
2022-08-17T04:22:30.069Z,100766.47
2022-08-17T04:25:01.202Z,100765.19
2022-08-17T04:27:27.823Z,100762.50
2022-08-17T04:29:55.955Z,100768.91
2022-08-17T04:33:00.516Z,100760.19
2022-08-17T04:35:10.729Z,100766.59
2022-08-17T04:37:37.341Z,100762.16
2022-08-17T04:40:27.147Z,100768.66
2022-08-17T04:43:05.264Z,100766.78
2022-08-17T04:45:32.545Z,100777.06
2022-08-17T04:48:00.511Z,100770.41
2022-08-17T04:50:27.640Z,100771.03
2022-08-17T04:52:54.414Z,100776.97
2022-08-17T04:55:21.385Z,100782.97
2022-08-17T04:57:47.990Z,100779.00
2022-08-17T05:00:14.846Z,100790.41
2022-08-17T05:02:49.910Z,100787.50
2022-08-17T05:05:22.320Z,100788.34
2022-08-17T05:07:52.560Z,100789.16
2022-08-17T05:10:20.055Z,100795.94
2022-08-17T05:12:46.907Z,100789.84
2022-08-17T05:15:16.162Z,100794.88
2022-08-17T05:17:43.824Z,100799.41
2022-08-17T05:20:10.859Z,100792.63
2022-08-17T05:22:47.502Z,100796.47
2022-08-17T05:25:14.486Z,100794.81
2022-08-17T05:27:41.663Z,100805.94
2022-08-17T05:30:10.147Z,100805.59
2022-08-17T05:32:40.315Z,100811.78
2022-08-17T05:35:07.647Z,100809.38
2022-08-17T05:37:34.270Z,100805.75
2022-08-17T05:40:00.988Z,100802.22
2022-08-17T05:42:27.769Z,100804.91
2022-08-17T05:44:57.790Z,100809.81
2022-08-17T05:47:25.463Z,100807.59
2022-08-17T05:49:53.772Z,100812.50
2022-08-17T05:52:26.011Z,100814.97
2022-08-17T05:55:01.300Z,100816.25
2022-08-17T05:57:56.106Z,100819.63
2022-08-17T06:00:30.813Z,100823.47
2022-08-17T06:03:29.014Z,100817.69
2022-08-17T06:06:13.774Z,100820.16
2022-08-17T06:09:33.797Z,100826.91
2022-08-17T06:12:20.080Z,100829.38
2022-08-17T06:15:02.323Z,100827.25
2022-08-17T06:17:29.631Z,100823.53
2022-08-17T06:19:59.767Z,100833.22
2022-08-17T06:22:28.767Z,100834.84
2022-08-17T06:24:57.198Z,100831.94
2022-08-17T06:27:37.326Z,100830.88
2022-08-17T06:30:27.202Z,100836.25
2022-08-17T06:32:56.234Z,100835.19
2022-08-17T06:35:34.096Z,100835.19
2022-08-17T06:38:37.098Z,100834.97
2022-08-17T06:41:16.479Z,100834.75
2022-08-17T06:43:48.811Z,100831.81
2022-08-17T06:46:36.222Z,100831.00
2022-08-17T06:49:08.937Z,100839.88
2022-08-17T06:51:40.591Z,100832.63
2022-08-17T06:54:28.529Z,100839.66
2022-08-17T06:57:25.438Z,100840.44
2022-08-17T07:00:07.575Z,100836.97
2022-08-17T07:02:52.051Z,100839.66
2022-08-17T07:05:22.822Z,100843.75
2022-08-17T07:08:07.927Z,100845.59
2022-08-17T07:10:38.317Z,100851.56
2022-08-17T07:13:42.172Z,100849.44
2022-08-17T07:16:22.231Z,100854.00
2022-08-17T07:18:51.211Z,100852.75
2022-08-17T07:21:26.764Z,100850.84
2022-08-17T07:24:30.747Z,100845.72
2022-08-17T07:27:27.495Z,100851.69
2022-08-17T07:30:11.442Z,100855.75
2022-08-17T07:32:48.043Z,100856.09
2022-08-17T07:35:40.775Z,100852.13
2022-08-17T07:38:28.978Z,100861.81
2022-08-17T07:41:01.133Z,100860.78
2022-08-17T07:43:31.186Z,100863.25
2022-08-17T07:46:19.246Z,100851.44
2022-08-17T07:48:49.811Z,100852.84
2022-08-17T07:51:17.933Z,100853.63
2022-08-17T07:53:45.361Z,100860.66
2022-08-17T07:56:34.632Z,100853.16
2022-08-17T07:59:30.007Z,100847.78
2022-08-17T08:02:06.751Z,100850.03
2022-08-17T08:05:02.285Z,100847.34
2022-08-17T08:07:34.715Z,100849.78
2022-08-17T08:10:15.257Z,100844.41
2022-08-17T08:12:46.871Z,100845.22
2022-08-17T08:15:18.673Z,100846.03
2022-08-17T08:17:52.587Z,100853.88
2022-08-17T08:20:51.833Z,100844.19
2022-08-17T08:23:39.552Z,100848.50
2022-08-17T08:26:26.445Z,100860.88
2022-08-17T08:29:15.383Z,100859.81
2022-08-17T08:31:46.572Z,100859.81
2022-08-17T08:34:58.678Z,100866.03
2022-08-17T08:38:01.394Z,100859.81
2022-08-17T08:40:40.142Z,100855.03
2022-08-17T08:43:22.647Z,100848.84
2022-08-17T08:46:07.654Z,100851.53
2022-08-17T08:49:59.086Z,100850.47
2022-08-17T08:52:25.713Z,100848.38
2022-08-17T08:55:07.616Z,100842.75
2022-08-17T08:57:38.814Z,100840.88
2022-08-17T09:00:17.490Z,100839.81
2022-08-17T09:03:03.046Z,100842.25
2022-08-17T09:06:06.858Z,100846.59
2022-08-17T09:09:07.025Z,100847.22
2022-08-17T09:12:02.543Z,100850.72
2022-08-17T09:14:46.900Z,100848.84
2022-08-17T09:17:22.191Z,100847.78
2022-08-17T09:19:54.720Z,100844.06
2022-08-17T09:22:37.304Z,100840.28
2022-08-17T09:25:11.245Z,100831.16
2022-08-17T09:28:00.950Z,100837.38
2022-08-17T09:30:36.244Z,100837.16
2022-08-17T09:33:22.926Z,100837.16
2022-08-17T09:36:12.270Z,100838.78
2022-08-17T09:39:00.220Z,100835.03
2022-08-17T09:41:49.304Z,100830.22
2022-08-17T09:44:27.277Z,100834.78
2022-08-17T09:46:59.354Z,100840.72
2022-08-17T09:49:38.574Z,100837.25
2022-08-17T09:52:14.711Z,100839.69
2022-08-17T09:54:45.286Z,100840.50
2022-08-17T09:57:49.369Z,100834.06
2022-08-17T10:00:23.759Z,100833.81
2022-08-17T10:03:28.281Z,100827.41
2022-08-17T10:06:10.860Z,100828.81
2022-08-17T10:09:06.460Z,100825.84
2022-08-17T10:11:55.292Z,100827.63
2022-08-17T10:14:43.766Z,100817.34
2022-08-17T10:17:23.231Z,100824.34
2022-08-17T10:20:27.515Z,100818.19
2022-08-17T10:23:19.687Z,100818.19
2022-08-17T10:26:08.925Z,100824.34
2022-08-17T10:28:59.664Z,100821.91
2022-08-17T10:31:38.665Z,100826.47
2022-08-17T10:34:05.220Z,100828.09
2022-08-17T10:36:34.609Z,100820.03
2022-08-17T10:39:19.827Z,100821.09
2022-08-17T10:41:50.459Z,100821.91
2022-08-17T10:44:45.696Z,100827.03
2022-08-17T10:47:15.390Z,100821.66
2022-08-17T10:49:47.943Z,100818.97
2022-08-17T10:52:20.438Z,100810.91
2022-08-17T10:54:48.792Z,100809.84
2022-08-17T10:57:27.404Z,100812.06
2022-08-17T10:59:55.854Z,100820.22
2022-08-17T11:02:23.162Z,100819.19
2022-08-17T11:05:07.990Z,100820.47
2022-08-17T11:07:58.530Z,100821.53
2022-08-17T11:10:46.419Z,100818.03
2022-08-17T11:13:33.686Z,100815.91
2022-08-17T11:16:28.079Z,100807.28
2022-08-17T11:19:25.169Z,100812.66
2022-08-17T11:22:33.356Z,100813.69
2022-08-17T11:25:14.370Z,100811.25
2022-08-17T11:27:42.332Z,100805.06
2022-08-17T11:30:13.249Z,100802.38
2022-08-17T11:32:54.323Z,100795.91
2022-08-17T11:35:21.445Z,100787.47
2022-08-17T11:37:53.689Z,100790.84
2022-08-17T11:40:46.509Z,100793.63
2022-08-17T11:43:31.012Z,100787.75
2022-08-17T11:46:16.040Z,100785.16
2022-08-17T11:49:03.031Z,100787.84
2022-08-17T11:51:59.413Z,100786.34
2022-08-17T11:54:33.781Z,100775.25
2022-08-17T11:57:21.506Z,100774.94
2022-08-17T11:59:48.076Z,100781.38
2022-08-17T12:02:32.998Z,100785.94
2022-08-17T12:05:14.512Z,100778.94
2022-08-17T12:07:48.245Z,100784.31
2022-08-17T12:10:18.352Z,100782.41
2022-08-17T12:12:45.946Z,100782.19
2022-08-17T12:15:27.650Z,100768.50
2022-08-17T12:17:56.733Z,100762.41
2022-08-17T12:20:32.610Z,100772.41
2022-08-17T12:23:17.282Z,100769.50
2022-08-17T12:26:07.243Z,100774.56
2022-08-17T12:28:36.163Z,100772.91
2022-08-17T12:31:06.384Z,100775.84
2022-08-17T12:33:33.579Z,100768.59
2022-08-17T12:36:03.510Z,100772.34
2022-08-17T12:38:34.483Z,100765.31
2022-08-17T12:41:23.661Z,100773.63
2022-08-17T12:44:14.907Z,100780.09
2022-08-17T12:46:55.530Z,100772.00
2022-08-17T12:49:29.638Z,100775.75
2022-08-17T12:52:06.640Z,100770.34
2022-08-17T12:54:51.420Z,100767.19
2022-08-17T12:57:24.670Z,100768.34
2022-08-17T13:00:16.293Z,100765.25
2022-08-17T13:02:46.866Z,100761.03
2022-08-17T13:05:27.719Z,100751.41
2022-08-17T13:07:56.159Z,100759.97
2022-08-17T13:10:33.085Z,100752.59
2022-08-17T13:13:05.934Z,100747.22
2022-08-17T13:15:44.824Z,100744.72
2022-08-17T13:18:30.140Z,100744.63
2022-08-17T13:20:58.985Z,100747.56
2022-08-17T13:23:29.245Z,100740.56
2022-08-17T13:25:58.561Z,100743.56
2022-08-17T13:28:30.745Z,100733.31
2022-08-17T13:31:24.142Z,100743.13
2022-08-17T13:33:50.922Z,100738.88
2022-08-17T13:36:30.204Z,100739.78
2022-08-17T13:39:26.235Z,100743.13
2022-08-17T13:41:56.058Z,100751.44
2022-08-17T13:44:39.247Z,100749.16
2022-08-17T13:47:16.515Z,100745.72
2022-08-17T13:49:48.723Z,100734.72
2022-08-17T13:52:37.963Z,100732.81
2022-08-17T13:55:17.280Z,100734.66
2022-08-17T13:57:48.610Z,100736.91
2022-08-17T14:00:31.667Z,100736.00
2022-08-17T14:03:00.050Z,100739.19
2022-08-17T14:05:26.948Z,100730.50
2022-08-17T14:07:59.026Z,100729.97
2022-08-17T14:10:26.861Z,100733.94
2022-08-17T14:12:53.610Z,100730.44
2022-08-17T14:15:22.626Z,100735.81
2022-08-17T14:17:49.705Z,100735.81
2022-08-17T14:20:19.418Z,100737.72
2022-08-17T14:22:49.546Z,100739.34
2022-08-17T14:25:23.130Z,100732.06
2022-08-17T14:27:53.686Z,100721.28
2022-08-17T14:30:26.724Z,100726.31
2022-08-17T14:32:56.432Z,100721.31
2022-08-17T14:35:24.384Z,100726.78
2022-08-17T14:37:52.160Z,100716.91
2022-08-17T14:40:20.858Z,100715.09
2022-08-17T14:42:48.087Z,100714.34
2022-08-17T14:45:30.368Z,100711.41
2022-08-17T14:48:01.036Z,100707.16
2022-08-17T14:50:27.622Z,100700.47
2022-08-17T14:52:56.049Z,100708.28
2022-08-17T14:55:24.964Z,100709.66
2022-08-17T14:57:51.761Z,100706.97
2022-08-17T15:00:18.809Z,100703.03
2022-08-17T15:02:58.327Z,100707.72
2022-08-17T15:05:28.370Z,100702.66
2022-08-17T15:07:55.791Z,100702.41
2022-08-17T15:10:23.398Z,100707.81
2022-08-17T15:12:51.330Z,100708.47
2022-08-17T15:15:18.078Z,100712.53
2022-08-17T15:17:45.901Z,100703.09
2022-08-17T15:20:19.459Z,100703.00
2022-08-17T15:22:49.716Z,100701.97
2022-08-17T15:25:17.632Z,100695.63
2022-08-17T15:27:44.350Z,100706.25
2022-08-17T15:30:11.790Z,100702.44
2022-08-17T15:32:40.634Z,100704.25
2022-08-17T15:35:09.181Z,100703.69
2022-08-17T15:37:37.401Z,100703.91
2022-08-17T15:40:05.437Z,100699.59
2022-08-17T15:42:32.419Z,100699.59
2022-08-17T15:44:59.915Z,100694.47
2022-08-17T15:47:26.566Z,100699.06
2022-08-17T15:49:57.969Z,100695.28
2022-08-17T15:52:28.406Z,100691.22
2022-08-17T15:55:00.535Z,100692.84
2022-08-17T15:57:27.792Z,100684.50
2022-08-17T15:59:58.938Z,100684.50
2022-08-17T16:03:44.544Z,100682.06
2022-08-17T16:05:24.971Z,100678.53
2022-08-17T16:07:52.599Z,100679.38
2022-08-17T16:10:19.881Z,100676.91
2022-08-17T16:12:47.971Z,100671.28
2022-08-17T16:15:15.432Z,100678.53
2022-08-17T16:17:42.349Z,100684.16
2022-08-17T16:20:10.463Z,100678.00
2022-08-17T16:22:47.765Z,100674.47
2022-08-17T16:25:19.561Z,100687.13
2022-08-17T16:27:48.746Z,100689.00
2022-08-17T16:30:17.597Z,100691.16
2022-08-17T16:32:46.241Z,100683.88
2022-08-17T16:35:17.415Z,100677.69
2022-08-17T16:37:45.677Z,100681.41
2022-08-17T16:40:14.067Z,100673.56
2022-08-17T16:42:42.846Z,100671.16
2022-08-17T16:45:13.177Z,100668.47
2022-08-17T16:47:41.179Z,100668.47
2022-08-17T16:50:09.122Z,100666.81
2022-08-17T16:52:36.566Z,100660.88
2022-08-17T16:55:04.560Z,100662.50
2022-08-17T16:57:31.975Z,100665.19
2022-08-17T16:59:58.722Z,100659.81
2022-08-17T17:02:26.653Z,100665.44
2022-08-17T17:05:13.959Z,100666.25
2022-08-17T17:08:12.829Z,100660.03
2022-08-17T17:10:43.736Z,100670.56
2022-08-17T17:13:33.367Z,100669.78
2022-08-17T17:16:15.177Z,100677.59
2022-08-17T17:18:58.095Z,100675.72
2022-08-17T17:21:32.894Z,100681.09
2022-08-17T17:24:04.645Z,100677.34
2022-08-17T17:26:45.653Z,100683.56
2022-08-17T17:29:47.855Z,100688.09
2022-08-17T17:32:31.030Z,100684.34
2022-08-17T17:35:04.724Z,100691.63
2022-08-17T17:37:34.012Z,100694.31
2022-08-17T17:40:09.585Z,100690.00
2022-08-17T17:42:40.004Z,100691.63
2022-08-17T17:45:19.914Z,100684.63
2022-08-17T17:47:46.903Z,100681.94
2022-08-17T17:50:14.148Z,100681.09
2022-08-17T17:52:47.300Z,100684.88
2022-08-17T17:55:35.389Z,100679.47
2022-08-17T17:58:20.756Z,100678.66
2022-08-17T18:01:01.183Z,100684.03
2022-08-17T18:03:53.860Z,100686.19
2022-08-17T18:06:45.506Z,100693.19
2022-08-17T18:09:24.013Z,100698.56
2022-08-17T18:12:08.681Z,100697.75
2022-08-17T18:15:03.900Z,100707.72
2022-08-17T18:17:31.030Z,100705.03
2022-08-17T18:19:57.687Z,100705.25
2022-08-17T18:22:25.257Z,100705.03
2022-08-17T18:24:56.151Z,100694.50
2022-08-17T18:27:35.488Z,100687.22
2022-08-17T18:30:24.089Z,100692.03
2022-08-17T18:32:50.720Z,100690.97
2022-08-17T18:35:21.400Z,100690.19
2022-08-17T18:37:51.294Z,100695.28
2022-08-17T18:40:18.467Z,100696.94
2022-08-17T18:42:55.594Z,100702.34
2022-08-17T18:45:43.804Z,100705.03
2022-08-17T18:48:49.391Z,100703.94
2022-08-17T18:51:40.573Z,100710.41
2022-08-17T18:54:24.850Z,100708.50
2022-08-17T18:56:57.429Z,100707.38
2022-08-17T18:59:45.256Z,100705.25
2022-08-17T19:02:20.731Z,100712.28
2022-08-17T19:05:09.858Z,100706.88
2022-08-17T19:07:47.185Z,100705.25
2022-08-17T19:10:16.745Z,100710.66
2022-08-17T19:13:00.242Z,100714.41
2022-08-17T19:15:34.006Z,100714.41
2022-08-17T19:18:15.463Z,100718.97
2022-08-17T19:20:48.782Z,100714.41
2022-08-17T19:23:31.570Z,100720.59
2022-08-17T19:26:01.601Z,100718.97
2022-08-17T19:28:48.003Z,100709.28
2022-08-17T19:31:22.595Z,100708.06
2022-08-17T19:33:49.438Z,100713.88
2022-08-17T19:36:40.403Z,100710.94
2022-08-17T19:39:38.347Z,100714.94
2022-08-17T19:42:28.570Z,100711.13
2022-08-17T19:45:46.494Z,100710.03
2022-08-17T19:48:19.869Z,100707.34
2022-08-17T19:50:56.613Z,100709.81
2022-08-17T19:53:47.411Z,100710.13
2022-08-17T19:56:42.139Z,100702.28
2022-08-17T19:59:27.370Z,100696.91
2022-08-17T20:02:32.862Z,100699.88
2022-08-17T20:05:02.859Z,100697.91
2022-08-17T20:07:57.050Z,100698.13
2022-08-17T20:10:57.932Z,100699.19
2022-08-17T20:13:34.091Z,100705.66
2022-08-17T20:16:01.618Z,100709.88
2022-08-17T20:18:37.672Z,100705.22
2022-08-17T20:21:44.804Z,100693.66
2022-08-17T20:24:19.014Z,100693.66
2022-08-17T20:26:58.964Z,100697.38
2022-08-17T20:29:51.514Z,100695.28
2022-08-17T20:32:24.097Z,100691.53
2022-08-17T20:35:04.279Z,100684.22
2022-08-17T20:37:33.303Z,100692.00
2022-08-17T20:39:59.907Z,100691.69
2022-08-17T20:42:27.818Z,100690.06
2022-08-17T20:45:01.675Z,100688.16
2022-08-17T20:47:34.542Z,100690.88
2022-08-17T20:50:04.478Z,100688.28
2022-08-17T20:52:47.422Z,100688.28
2022-08-17T20:55:52.332Z,100688.28
2022-08-17T20:58:30.636Z,100687.94
2022-08-17T21:00:58.617Z,100682.00
2022-08-17T21:03:26.745Z,100674.41
2022-08-17T21:06:00.223Z,100687.28
2022-08-17T21:08:33.440Z,100692.31
2022-08-17T21:11:21.541Z,100683.38
2022-08-17T21:14:10.984Z,100683.03
2022-08-17T21:17:05.857Z,100693.22
2022-08-17T21:20:11.351Z,100693.00
2022-08-17T21:22:58.542Z,100700.81
2022-08-17T21:25:50.086Z,100702.44
2022-08-17T21:28:23.124Z,100695.44
2022-08-17T21:31:08.464Z,100696.97
2022-08-17T21:33:39.593Z,100701.53
2022-08-17T21:36:12.257Z,100700.81
2022-08-17T21:38:47.804Z,100699.75
2022-08-17T21:41:35.639Z,100703.25
2022-08-17T21:44:13.274Z,100698.69
2022-08-17T21:46:42.980Z,100705.13
2022-08-17T21:49:16.817Z,100707.47
2022-08-17T21:51:56.764Z,100707.97
2022-08-17T21:54:33.932Z,100703.91
2022-08-17T21:57:02.478Z,100705.06
2022-08-17T21:59:32.944Z,100715.06
2022-08-17T22:02:01.675Z,100720.22
2022-08-17T22:04:37.942Z,100714.28
2022-08-17T22:07:15.187Z,100715.81
2022-08-17T22:09:46.940Z,100713.28
2022-08-17T22:12:19.142Z,100715.97
2022-08-17T22:14:56.084Z,100722.72
2022-08-17T22:17:40.040Z,100722.50
2022-08-17T22:20:14.433Z,100724.91
2022-08-17T22:23:08.673Z,100719.88
2022-08-17T22:25:38.310Z,100720.22
2022-08-17T22:28:08.062Z,100718.09
2022-08-17T22:30:41.653Z,100724.88
2022-08-17T22:33:32.882Z,100720.22
2022-08-17T22:36:13.747Z,100725.97
2022-08-17T22:38:41.926Z,100727.75
2022-08-17T22:41:52.048Z,100722.13
2022-08-17T22:44:29.548Z,100727.88
2022-08-17T22:47:00.006Z,100727.59
2022-08-17T22:49:53.767Z,100728.19
2022-08-17T22:52:32.152Z,100730.81
2022-08-17T22:55:35.153Z,100732.56
2022-08-17T22:58:21.021Z,100728.50
2022-08-17T23:00:49.124Z,100731.66
2022-08-17T23:03:22.393Z,100728.41
2022-08-17T23:06:10.643Z,100720.56
2022-08-17T23:08:54.648Z,100721.38
2022-08-17T23:11:42.921Z,100726.88
2022-08-17T23:14:13.354Z,100723.38
2022-08-17T23:16:43.528Z,100726.63
2022-08-17T23:19:11.349Z,100722.31
2022-08-17T23:21:38.039Z,100720.69
2022-08-17T23:24:05.817Z,100714.47
2022-08-17T23:26:39.226Z,100719.75
2022-08-17T23:29:06.700Z,100722.69
2022-08-17T23:31:37.256Z,100719.22
2022-08-17T23:34:04.897Z,100716.38
2022-08-17T23:36:34.678Z,100722.91
2022-08-17T23:39:01.351Z,100712.94
2022-08-17T23:41:31.907Z,100725.00
2022-08-17T23:43:59.422Z,100723.03
2022-08-17T23:46:26.047Z,100718.78
2022-08-17T23:48:54.239Z,100714.84
2022-08-17T23:51:24.169Z,100714.16
2022-08-17T23:53:55.221Z,100720.97
2022-08-17T23:56:26.096Z,100720.88
2022-08-17T23:58:54.901Z,100727.78
